sensor_id;sensor_type;location;lat;lon;timestamp;P1;durP1;ratioP1;P2;durP2;ratioP2
2888;SDS011;1453;42.708;23.282;2023-10-13T00:00:32;25.90;;;16.70;;
2888;SDS011;1453;42.708;23.282;2023-10-13T00:03:03;25.60;;;17.60;;
2888;SDS011;1453;42.708;23.282;2023-10-13T00:05:31;26.30;;;15.10;;
2888;SDS011;1453;42.708;23.282;2023-10-13T00:07:58;29.33;;;17.10;;
2888;SDS011;1453;42.708;23.282;2023-10-13T00:10:29;25.40;;;15.17;;
2888;SDS011;1453;42.708;23.282;2023-10-13T00:12:56;22.70;;;15.07;;
2888;SDS011;1453;42.708;23.282;2023-10-13T00:15:52;30.80;;;17.47;;
2888;SDS011;1453;42.708;23.282;2023-10-13T00:18:27;26.23;;;16.13;;
2888;SDS011;1453;42.708;23.282;2023-10-13T00:21:01;21.40;;;13.97;;
2888;SDS011;1453;42.708;23.282;2023-10-13T00:23:37;26.40;;;14.60;;
2888;SDS011;1453;42.708;23.282;2023-10-13T00:26:04;26.83;;;13.73;;
2888;SDS011;1453;42.708;23.282;2023-10-13T00:28:34;20.13;;;12.50;;
2888;SDS011;1453;42.708;23.282;2023-10-13T00:31:00;44.57;;;24.43;;
2888;SDS011;1453;42.708;23.282;2023-10-13T00:33:36;32.70;;;18.67;;
2888;SDS011;1453;42.708;23.282;2023-10-13T00:36:04;39.20;;;23.67;;
2888;SDS011;1453;42.708;23.282;2023-10-13T00:38:32;44.10;;;26.90;;
2888;SDS011;1453;42.708;23.282;2023-10-13T00:41:00;20.27;;;14.10;;
2888;SDS011;1453;42.708;23.282;2023-10-13T00:43:44;26.10;;;17.43;;
2888;SDS011;1453;42.708;23.282;2023-10-13T00:46:34;22.13;;;13.17;;
2888;SDS011;1453;42.708;23.282;2023-10-13T00:49:03;21.73;;;13.13;;
2888;SDS011;1453;42.708;23.282;2023-10-13T00:51:30;22.57;;;13.80;;
2888;SDS011;1453;42.708;23.282;2023-10-13T00:54:03;19.33;;;12.90;;
2888;SDS011;1453;42.708;23.282;2023-10-13T00:56:39;19.20;;;10.60;;
2888;SDS011;1453;42.708;23.282;2023-10-13T00:59:25;21.97;;;12.90;;
2888;SDS011;1453;42.708;23.282;2023-10-13T01:01:52;17.97;;;11.63;;
2888;SDS011;1453;42.708;23.282;2023-10-13T01:04:20;20.97;;;13.17;;
2888;SDS011;1453;42.708;23.282;2023-10-13T01:06:53;23.40;;;12.20;;
2888;SDS011;1453;42.708;23.282;2023-10-13T01:09:19;19.30;;;11.87;;
2888;SDS011;1453;42.708;23.282;2023-10-13T01:11:46;19.30;;;12.70;;
2888;SDS011;1453;42.708;23.282;2023-10-13T01:14:17;17.60;;;11.57;;
2888;SDS011;1453;42.708;23.282;2023-10-13T01:16:45;18.40;;;11.80;;
2888;SDS011;1453;42.708;23.282;2023-10-13T01:19:13;17.80;;;11.43;;
2888;SDS011;1453;42.708;23.282;2023-10-13T01:21:44;28.10;;;11.03;;
2888;SDS011;1453;42.708;23.282;2023-10-13T01:24:12;13.13;;;11.40;;
2888;SDS011;1453;42.708;23.282;2023-10-13T01:26:45;18.73;;;11.20;;
2888;SDS011;1453;42.708;23.282;2023-10-13T01:29:16;18.03;;;10.77;;
2888;SDS011;1453;42.708;23.282;2023-10-13T01:31:44;19.20;;;12.03;;
2888;SDS011;1453;42.708;23.282;2023-10-13T01:34:14;17.87;;;11.10;;
2888;SDS011;1453;42.708;23.282;2023-10-13T01:36:55;16.67;;;11.23;;
2888;SDS011;1453;42.708;23.282;2023-10-13T01:39:22;18.10;;;11.23;;
2888;SDS011;1453;42.708;23.282;2023-10-13T01:41:54;23.17;;;11.53;;
2888;SDS011;1453;42.708;23.282;2023-10-13T01:46:51;28.20;;;11.67;;
2888;SDS011;1453;42.708;23.282;2023-10-13T01:49:17;13.40;;;10.23;;
2888;SDS011;1453;42.708;23.282;2023-10-13T01:51:43;17.63;;;10.97;;
2888;SDS011;1453;42.708;23.282;2023-10-13T01:54:12;22.20;;;10.17;;
2888;SDS011;1453;42.708;23.282;2023-10-13T01:56:40;14.80;;;10.53;;
2888;SDS011;1453;42.708;23.282;2023-10-13T01:59:12;45.87;;;12.23;;
2888;SDS011;1453;42.708;23.282;2023-10-13T02:01:39;18.87;;;10.87;;
2888;SDS011;1453;42.708;23.282;2023-10-13T02:04:07;15.73;;;11.00;;
2888;SDS011;1453;42.708;23.282;2023-10-13T02:06:35;13.93;;;10.83;;
2888;SDS011;1453;42.708;23.282;2023-10-13T02:09:08;15.13;;;11.97;;
2888;SDS011;1453;42.708;23.282;2023-10-13T02:11:54;18.00;;;11.77;;
2888;SDS011;1453;42.708;23.282;2023-10-13T02:14:21;15.20;;;9.93;;
2888;SDS011;1453;42.708;23.282;2023-10-13T02:16:50;28.00;;;13.40;;
2888;SDS011;1453;42.708;23.282;2023-10-13T02:19:36;17.10;;;11.40;;
2888;SDS011;1453;42.708;23.282;2023-10-13T02:22:05;23.70;;;11.40;;
2888;SDS011;1453;42.708;23.282;2023-10-13T02:24:34;19.57;;;10.83;;
2888;SDS011;1453;42.708;23.282;2023-10-13T02:27:05;16.10;;;10.43;;
2888;SDS011;1453;42.708;23.282;2023-10-13T02:29:42;24.73;;;12.97;;
2888;SDS011;1453;42.708;23.282;2023-10-13T02:32:11;21.30;;;11.20;;
2888;SDS011;1453;42.708;23.282;2023-10-13T02:34:55;16.80;;;10.47;;
2888;SDS011;1453;42.708;23.282;2023-10-13T02:37:30;14.67;;;10.77;;
2888;SDS011;1453;42.708;23.282;2023-10-13T02:39:56;14.40;;;9.90;;
2888;SDS011;1453;42.708;23.282;2023-10-13T02:42:23;18.57;;;11.00;;
2888;SDS011;1453;42.708;23.282;2023-10-13T02:44:49;16.37;;;11.27;;
2888;SDS011;1453;42.708;23.282;2023-10-13T02:47:16;25.70;;;11.27;;
2888;SDS011;1453;42.708;23.282;2023-10-13T02:49:44;16.03;;;10.27;;
2888;SDS011;1453;42.708;23.282;2023-10-13T02:52:12;15.47;;;10.20;;
2888;SDS011;1453;42.708;23.282;2023-10-13T02:54:42;15.90;;;10.33;;
2888;SDS011;1453;42.708;23.282;2023-10-13T02:57:15;19.10;;;11.63;;
2888;SDS011;1453;42.708;23.282;2023-10-13T02:59:42;15.40;;;10.23;;
2888;SDS011;1453;42.708;23.282;2023-10-13T03:02:15;17.47;;;10.93;;
2888;SDS011;1453;42.708;23.282;2023-10-13T03:04:53;13.90;;;11.00;;
2888;SDS011;1453;42.708;23.282;2023-10-13T03:07:38;16.40;;;10.93;;
2888;SDS011;1453;42.708;23.282;2023-10-13T03:10:08;16.20;;;10.73;;
2888;SDS011;1453;42.708;23.282;2023-10-13T03:12:35;19.33;;;11.63;;
2888;SDS011;1453;42.708;23.282;2023-10-13T03:15:05;17.27;;;11.07;;
2888;SDS011;1453;42.708;23.282;2023-10-13T03:17:52;20.40;;;12.80;;
2888;SDS011;1453;42.708;23.282;2023-10-13T03:20:20;15.87;;;10.40;;
2888;SDS011;1453;42.708;23.282;2023-10-13T03:22:58;17.97;;;12.03;;
2888;SDS011;1453;42.708;23.282;2023-10-13T03:25:24;19.17;;;10.43;;
2888;SDS011;1453;42.708;23.282;2023-10-13T03:27:53;20.80;;;11.30;;
2888;SDS011;1453;42.708;23.282;2023-10-13T03:30:23;23.73;;;12.00;;
2888;SDS011;1453;42.708;23.282;2023-10-13T03:32:59;19.60;;;12.90;;
2888;SDS011;1453;42.708;23.282;2023-10-13T03:35:31;16.60;;;11.07;;
2888;SDS011;1453;42.708;23.282;2023-10-13T03:38:08;25.90;;;11.20;;
2888;SDS011;1453;42.708;23.282;2023-10-13T03:40:45;21.80;;;10.60;;
2888;SDS011;1453;42.708;23.282;2023-10-13T03:43:33;15.17;;;11.47;;
2888;SDS011;1453;42.708;23.282;2023-10-13T03:46:10;22.60;;;11.50;;
2888;SDS011;1453;42.708;23.282;2023-10-13T03:48:36;22.90;;;11.73;;
2888;SDS011;1453;42.708;23.282;2023-10-13T03:51:31;18.80;;;12.10;;
2888;SDS011;1453;42.708;23.282;2023-10-13T03:53:57;21.50;;;12.00;;
2888;SDS011;1453;42.708;23.282;2023-10-13T03:56:26;27.90;;;13.27;;
2888;SDS011;1453;42.708;23.282;2023-10-13T03:59:04;29.67;;;14.83;;
2888;SDS011;1453;42.708;23.282;2023-10-13T04:01:43;37.37;;;14.67;;
2888;SDS011;1453;42.708;23.282;2023-10-13T04:04:17;30.83;;;15.73;;
2888;SDS011;1453;42.708;23.282;2023-10-13T04:06:55;24.87;;;15.37;;
2888;SDS011;1453;42.708;23.282;2023-10-13T04:09:39;23.80;;;15.80;;
2888;SDS011;1453;42.708;23.282;2023-10-13T04:12:08;28.33;;;15.47;;
2888;SDS011;1453;42.708;23.282;2023-10-13T04:14:39;26.37;;;15.63;;
2888;SDS011;1453;42.708;23.282;2023-10-13T04:17:28;22.33;;;15.80;;
2888;SDS011;1453;42.708;23.282;2023-10-13T04:19:55;21.33;;;14.30;;
2888;SDS011;1453;42.708;23.282;2023-10-13T04:25:13;22.13;;;14.30;;
2888;SDS011;1453;42.708;23.282;2023-10-13T04:28:02;22.17;;;13.87;;
2888;SDS011;1453;42.708;23.282;2023-10-13T04:30:39;24.70;;;13.87;;
2888;SDS011;1453;42.708;23.282;2023-10-13T04:33:21;21.93;;;13.20;;
2888;SDS011;1453;42.708;23.282;2023-10-13T04:36:11;19.37;;;12.57;;
2888;SDS011;1453;42.708;23.282;2023-10-13T04:39:01;21.90;;;13.67;;
2888;SDS011;1453;42.708;23.282;2023-10-13T04:41:34;20.30;;;12.80;;
2888;SDS011;1453;42.708;23.282;2023-10-13T04:44:11;17.63;;;12.50;;
2888;SDS011;1453;42.708;23.282;2023-10-13T04:46:58;20.70;;;13.73;;
2888;SDS011;1453;42.708;23.282;2023-10-13T04:49:28;21.07;;;12.87;;
2888;SDS011;1453;42.708;23.282;2023-10-13T04:52:08;21.20;;;13.30;;
2888;SDS011;1453;42.708;23.282;2023-10-13T04:54:38;22.70;;;12.93;;
2888;SDS011;1453;42.708;23.282;2023-10-13T04:57:20;21.53;;;13.27;;
2888;SDS011;1453;42.708;23.282;2023-10-13T04:59:50;22.00;;;13.30;;
2888;SDS011;1453;42.708;23.282;2023-10-13T05:02:36;21.80;;;13.83;;
2888;SDS011;1453;42.708;23.282;2023-10-13T05:05:08;25.13;;;16.37;;
2888;SDS011;1453;42.708;23.282;2023-10-13T05:07:38;45.93;;;18.03;;
2888;SDS011;1453;42.708;23.282;2023-10-13T05:10:23;25.47;;;15.70;;
2888;SDS011;1453;42.708;23.282;2023-10-13T05:13:08;24.97;;;14.97;;
2888;SDS011;1453;42.708;23.282;2023-10-13T05:15:53;25.80;;;15.70;;
2888;SDS011;1453;42.708;23.282;2023-10-13T05:18:37;23.20;;;14.83;;
2888;SDS011;1453;42.708;23.282;2023-10-13T05:21:22;23.70;;;14.90;;
2888;SDS011;1453;42.708;23.282;2023-10-13T05:24:06;28.90;;;14.67;;
2888;SDS011;1453;42.708;23.282;2023-10-13T05:26:51;22.30;;;14.80;;
2888;SDS011;1453;42.708;23.282;2023-10-13T05:29:44;45.33;;;20.77;;
2888;SDS011;1453;42.708;23.282;2023-10-13T05:32:30;46.17;;;20.20;;
2888;SDS011;1453;42.708;23.282;2023-10-13T05:35:15;25.53;;;16.23;;
2888;SDS011;1453;42.708;23.282;2023-10-13T05:38:00;25.63;;;15.37;;
2888;SDS011;1453;42.708;23.282;2023-10-13T05:40:56;20.03;;;13.07;;
2888;SDS011;1453;42.708;23.282;2023-10-13T05:43:42;27.37;;;14.77;;
2888;SDS011;1453;42.708;23.282;2023-10-13T05:46:27;29.87;;;13.97;;
2888;SDS011;1453;42.708;23.282;2023-10-13T05:49:01;25.40;;;13.60;;
2888;SDS011;1453;42.708;23.282;2023-10-13T05:51:31;23.70;;;14.10;;
2888;SDS011;1453;42.708;23.282;2023-10-13T05:53:57;23.67;;;14.33;;
2888;SDS011;1453;42.708;23.282;2023-10-13T05:56:42;23.43;;;14.70;;
2888;SDS011;1453;42.708;23.282;2023-10-13T05:59:35;24.23;;;13.13;;
2888;SDS011;1453;42.708;23.282;2023-10-13T06:02:21;23.70;;;13.43;;
2888;SDS011;1453;42.708;23.282;2023-10-13T06:05:15;25.23;;;14.10;;
2888;SDS011;1453;42.708;23.282;2023-10-13T06:07:59;25.60;;;14.30;;
2888;SDS011;1453;42.708;23.282;2023-10-13T06:10:44;33.33;;;14.43;;
2888;SDS011;1453;42.708;23.282;2023-10-13T06:13:28;21.27;;;13.03;;
2888;SDS011;1453;42.708;23.282;2023-10-13T06:16:14;23.17;;;12.80;;
2888;SDS011;1453;42.708;23.282;2023-10-13T06:19:00;36.43;;;16.13;;
2888;SDS011;1453;42.708;23.282;2023-10-13T06:21:45;21.50;;;14.03;;
2888;SDS011;1453;42.708;23.282;2023-10-13T06:24:30;23.03;;;15.27;;
2888;SDS011;1453;42.708;23.282;2023-10-13T06:27:15;23.10;;;11.23;;
2888;SDS011;1453;42.708;23.282;2023-10-13T06:30:00;18.90;;;12.20;;
2888;SDS011;1453;42.708;23.282;2023-10-13T06:32:29;18.53;;;11.50;;
2888;SDS011;1453;42.708;23.282;2023-10-13T06:34:56;15.57;;;10.63;;
2888;SDS011;1453;42.708;23.282;2023-10-13T06:37:26;14.43;;;10.87;;
2888;SDS011;1453;42.708;23.282;2023-10-13T06:39:56;16.50;;;11.70;;
2888;SDS011;1453;42.708;23.282;2023-10-13T06:42:28;19.63;;;10.50;;
2888;SDS011;1453;42.708;23.282;2023-10-13T06:44:57;20.30;;;11.70;;
2888;SDS011;1453;42.708;23.282;2023-10-13T06:47:25;14.23;;;11.27;;
2888;SDS011;1453;42.708;23.282;2023-10-13T06:49:52;15.50;;;12.00;;
2888;SDS011;1453;42.708;23.282;2023-10-13T06:52:22;18.27;;;12.27;;
2888;SDS011;1453;42.708;23.282;2023-10-13T06:54:52;16.70;;;12.63;;
2888;SDS011;1453;42.708;23.282;2023-10-13T06:57:19;19.20;;;13.20;;
2888;SDS011;1453;42.708;23.282;2023-10-13T06:59:47;21.53;;;13.90;;
2888;SDS011;1453;42.708;23.282;2023-10-13T07:02:14;22.90;;;13.93;;
2888;SDS011;1453;42.708;23.282;2023-10-13T07:04:49;20.87;;;15.10;;
2888;SDS011;1453;42.708;23.282;2023-10-13T07:07:36;25.90;;;15.10;;
2888;SDS011;1453;42.708;23.282;2023-10-13T07:10:12;25.07;;;15.17;;
2888;SDS011;1453;42.708;23.282;2023-10-13T07:12:38;23.43;;;15.80;;
2888;SDS011;1453;42.708;23.282;2023-10-13T07:15:08;27.03;;;15.43;;
2888;SDS011;1453;42.708;23.282;2023-10-13T07:17:41;28.77;;;16.70;;
2888;SDS011;1453;42.708;23.282;2023-10-13T07:20:09;21.23;;;16.90;;
2888;SDS011;1453;42.708;23.282;2023-10-13T07:22:59;24.53;;;16.57;;
2888;SDS011;1453;42.708;23.282;2023-10-13T07:25:37;22.07;;;14.97;;
2888;SDS011;1453;42.708;23.282;2023-10-13T07:28:08;25.23;;;15.60;;
2888;SDS011;1453;42.708;23.282;2023-10-13T07:30:34;23.13;;;16.27;;
2888;SDS011;1453;42.708;23.282;2023-10-13T07:33:19;24.27;;;16.57;;
2888;SDS011;1453;42.708;23.282;2023-10-13T07:35:46;25.97;;;17.50;;
2888;SDS011;1453;42.708;23.282;2023-10-13T07:38:19;28.30;;;21.60;;
2888;SDS011;1453;42.708;23.282;2023-10-13T07:40:46;26.23;;;17.77;;
2888;SDS011;1453;42.708;23.282;2023-10-13T07:43:18;27.00;;;18.67;;
2888;SDS011;1453;42.708;23.282;2023-10-13T07:45:47;22.97;;;17.10;;
2888;SDS011;1453;42.708;23.282;2023-10-13T07:48:18;22.30;;;17.30;;
2888;SDS011;1453;42.708;23.282;2023-10-13T07:51:08;22.33;;;18.23;;
2888;SDS011;1453;42.708;23.282;2023-10-13T07:53:44;22.43;;;16.67;;
2888;SDS011;1453;42.708;23.282;2023-10-13T07:56:13;28.50;;;19.40;;
2888;SDS011;1453;42.708;23.282;2023-10-13T07:58:44;36.47;;;27.77;;
2888;SDS011;1453;42.708;23.282;2023-10-13T08:01:25;23.00;;;17.50;;
2888;SDS011;1453;42.708;23.282;2023-10-13T08:03:52;27.73;;;20.67;;
2888;SDS011;1453;42.708;23.282;2023-10-13T08:06:36;27.17;;;19.17;;
2888;SDS011;1453;42.708;23.282;2023-10-13T08:09:06;23.70;;;19.20;;
2888;SDS011;1453;42.708;23.282;2023-10-13T08:11:52;32.10;;;20.70;;
2888;SDS011;1453;42.708;23.282;2023-10-13T08:14:19;28.10;;;18.20;;
2888;SDS011;1453;42.708;23.282;2023-10-13T08:16:58;31.43;;;19.10;;
2888;SDS011;1453;42.708;23.282;2023-10-13T08:19:25;24.20;;;18.93;;
2888;SDS011;1453;42.708;23.282;2023-10-13T08:22:01;34.13;;;18.43;;
2888;SDS011;1453;42.708;23.282;2023-10-13T08:24:45;31.00;;;19.07;;
2888;SDS011;1453;42.708;23.282;2023-10-13T08:27:18;29.67;;;18.43;;
2888;SDS011;1453;42.708;23.282;2023-10-13T08:30:13;25.83;;;17.60;;
2888;SDS011;1453;42.708;23.282;2023-10-13T08:32:51;28.50;;;18.97;;
2888;SDS011;1453;42.708;23.282;2023-10-13T08:35:20;35.10;;;22.70;;
2888;SDS011;1453;42.708;23.282;2023-10-13T08:38:09;30.53;;;19.03;;
2888;SDS011;1453;42.708;23.282;2023-10-13T08:40:43;26.47;;;18.63;;
2888;SDS011;1453;42.708;23.282;2023-10-13T08:43:28;26.23;;;17.90;;
2888;SDS011;1453;42.708;23.282;2023-10-13T08:46:08;27.53;;;17.90;;
2888;SDS011;1453;42.708;23.282;2023-10-13T08:48:35;25.53;;;17.37;;
2888;SDS011;1453;42.708;23.282;2023-10-13T08:51:01;25.63;;;17.77;;
2888;SDS011;1453;42.708;23.282;2023-10-13T08:53:37;22.60;;;17.47;;
2888;SDS011;1453;42.708;23.282;2023-10-13T08:56:11;27.90;;;17.80;;
2888;SDS011;1453;42.708;23.282;2023-10-13T08:58:56;26.60;;;18.37;;
2888;SDS011;1453;42.708;23.282;2023-10-13T09:04:16;25.70;;;17.70;;
2888;SDS011;1453;42.708;23.282;2023-10-13T09:09:24;24.83;;;18.33;;
2888;SDS011;1453;42.708;23.282;2023-10-13T09:12:14;21.90;;;17.40;;
2888;SDS011;1453;42.708;23.282;2023-10-13T09:17:46;26.00;;;17.40;;
2888;SDS011;1453;42.708;23.282;2023-10-13T09:20:37;26.97;;;16.97;;
2888;SDS011;1453;42.708;23.282;2023-10-13T09:23:07;23.40;;;15.90;;
2888;SDS011;1453;42.708;23.282;2023-10-13T09:25:49;21.90;;;15.10;;
2888;SDS011;1453;42.708;23.282;2023-10-13T09:28:34;26.73;;;16.30;;
2888;SDS011;1453;42.708;23.282;2023-10-13T09:31:02;20.50;;;14.70;;
2888;SDS011;1453;42.708;23.282;2023-10-13T09:33:32;17.17;;;14.40;;
2888;SDS011;1453;42.708;23.282;2023-10-13T09:36:04;20.53;;;15.77;;
2888;SDS011;1453;42.708;23.282;2023-10-13T09:38:38;18.83;;;16.17;;
2888;SDS011;1453;42.708;23.282;2023-10-13T09:41:13;22.40;;;16.90;;
2888;SDS011;1453;42.708;23.282;2023-10-13T09:43:51;21.77;;;14.87;;
2888;SDS011;1453;42.708;23.282;2023-10-13T09:46:21;19.73;;;13.90;;
2888;SDS011;1453;42.708;23.282;2023-10-13T09:48:53;20.27;;;15.27;;
2888;SDS011;1453;42.708;23.282;2023-10-13T09:51:31;16.63;;;13.03;;
2888;SDS011;1453;42.708;23.282;2023-10-13T09:54:10;16.60;;;13.13;;
2888;SDS011;1453;42.708;23.282;2023-10-13T09:56:53;19.70;;;12.73;;
2888;SDS011;1453;42.708;23.282;2023-10-13T09:59:33;16.30;;;12.60;;
2888;SDS011;1453;42.708;23.282;2023-10-13T10:02:30;19.60;;;13.37;;
2888;SDS011;1453;42.708;23.282;2023-10-13T10:36:47;13.67;;;9.30;;
2888;SDS011;1453;42.708;23.282;2023-10-13T10:39:19;13.30;;;10.90;;
2888;SDS011;1453;42.708;23.282;2023-10-13T10:41:46;23.13;;;10.40;;
2888;SDS011;1453;42.708;23.282;2023-10-13T10:44:19;16.70;;;12.80;;
2888;SDS011;1453;42.708;23.282;2023-10-13T10:47:08;13.60;;;9.50;;
2888;SDS011;1453;42.708;23.282;2023-10-13T10:49:56;9.67;;;7.73;;
2888;SDS011;1453;42.708;23.282;2023-10-13T10:52:25;14.40;;;7.50;;
2888;SDS011;1453;42.708;23.282;2023-10-13T10:55:01;10.73;;;6.87;;
2888;SDS011;1453;42.708;23.282;2023-10-13T10:57:32;15.17;;;9.33;;
2888;SDS011;1453;42.708;23.282;2023-10-13T11:00:03;12.30;;;8.70;;
2888;SDS011;1453;42.708;23.282;2023-10-13T11:02:37;8.93;;;7.10;;
2888;SDS011;1453;42.708;23.282;2023-10-13T11:05:03;12.70;;;8.33;;
2888;SDS011;1453;42.708;23.282;2023-10-13T11:07:31;11.90;;;8.30;;
2888;SDS011;1453;42.708;23.282;2023-10-13T11:10:09;13.33;;;9.00;;
2888;SDS011;1453;42.708;23.282;2023-10-13T11:12:57;8.50;;;4.70;;
2888;SDS011;1453;42.708;23.282;2023-10-13T11:15:44;10.03;;;5.70;;
2888;SDS011;1453;42.708;23.282;2023-10-13T11:18:10;9.13;;;5.70;;
2888;SDS011;1453;42.708;23.282;2023-10-13T11:20:46;8.80;;;6.00;;
2888;SDS011;1453;42.708;23.282;2023-10-13T11:23:19;7.73;;;6.27;;
2888;SDS011;1453;42.708;23.282;2023-10-13T11:25:56;10.37;;;7.03;;
2888;SDS011;1453;42.708;23.282;2023-10-13T11:28:26;12.97;;;7.50;;
2888;SDS011;1453;42.708;23.282;2023-10-13T11:30:52;9.13;;;6.90;;
2888;SDS011;1453;42.708;23.282;2023-10-13T11:33:25;9.47;;;6.83;;
2888;SDS011;1453;42.708;23.282;2023-10-13T11:35:56;10.20;;;7.20;;
2888;SDS011;1453;42.708;23.282;2023-10-13T11:38:38;9.80;;;6.37;;
2888;SDS011;1453;42.708;23.282;2023-10-13T11:41:13;9.17;;;6.60;;
2888;SDS011;1453;42.708;23.282;2023-10-13T11:46:26;10.73;;;6.33;;
2888;SDS011;1453;42.708;23.282;2023-10-13T11:49:04;9.70;;;5.70;;
2888;SDS011;1453;42.708;23.282;2023-10-13T11:51:41;7.30;;;5.83;;
2888;SDS011;1453;42.708;23.282;2023-10-13T11:54:19;7.80;;;6.10;;
2888;SDS011;1453;42.708;23.282;2023-10-13T11:56:48;9.00;;;5.80;;
2888;SDS011;1453;42.708;23.282;2023-10-13T11:59:14;8.13;;;6.40;;
2888;SDS011;1453;42.708;23.282;2023-10-13T12:01:49;10.43;;;6.70;;
2888;SDS011;1453;42.708;23.282;2023-10-13T12:04:34;9.00;;;6.57;;
2888;SDS011;1453;42.708;23.282;2023-10-13T12:07:17;11.43;;;6.20;;
2888;SDS011;1453;42.708;23.282;2023-10-13T12:09:49;11.50;;;5.93;;
2888;SDS011;1453;42.708;23.282;2023-10-13T12:12:19;7.40;;;5.03;;
2888;SDS011;1453;42.708;23.282;2023-10-13T12:14:46;12.70;;;5.30;;
2888;SDS011;1453;42.708;23.282;2023-10-13T12:17:21;10.43;;;4.90;;
2888;SDS011;1453;42.708;23.282;2023-10-13T12:20:00;8.20;;;5.27;;
2888;SDS011;1453;42.708;23.282;2023-10-13T12:22:29;7.70;;;6.03;;
2888;SDS011;1453;42.708;23.282;2023-10-13T12:25:07;10.47;;;6.10;;
2888;SDS011;1453;42.708;23.282;2023-10-13T12:27:55;10.20;;;5.50;;
2888;SDS011;1453;42.708;23.282;2023-10-13T12:30:37;9.27;;;5.77;;
2888;SDS011;1453;42.708;23.282;2023-10-13T12:33:33;9.60;;;5.90;;
2888;SDS011;1453;42.708;23.282;2023-10-13T12:36:02;9.97;;;6.37;;
2888;SDS011;1453;42.708;23.282;2023-10-13T12:38:38;9.10;;;7.27;;
2888;SDS011;1453;42.708;23.282;2023-10-13T12:41:07;16.70;;;12.67;;
2888;SDS011;1453;42.708;23.282;2023-10-13T12:43:52;8.87;;;7.13;;
2888;SDS011;1453;42.708;23.282;2023-10-13T12:46:36;8.53;;;7.63;;
2888;SDS011;1453;42.708;23.282;2023-10-13T12:49:21;9.73;;;6.87;;
2888;SDS011;1453;42.708;23.282;2023-10-13T12:52:05;9.43;;;5.93;;
2888;SDS011;1453;42.708;23.282;2023-10-13T12:54:41;8.40;;;6.67;;
2888;SDS011;1453;42.708;23.282;2023-10-13T12:57:15;11.00;;;6.50;;
2888;SDS011;1453;42.708;23.282;2023-10-13T12:59:41;9.53;;;7.87;;
2888;SDS011;1453;42.708;23.282;2023-10-13T13:02:07;8.13;;;6.80;;
2888;SDS011;1453;42.708;23.282;2023-10-13T13:04:40;7.47;;;6.37;;
2888;SDS011;1453;42.708;23.282;2023-10-13T13:07:09;13.30;;;7.17;;
2888;SDS011;1453;42.708;23.282;2023-10-13T13:09:42;9.30;;;6.73;;
2888;SDS011;1453;42.708;23.282;2023-10-13T13:12:08;11.40;;;7.00;;
2888;SDS011;1453;42.708;23.282;2023-10-13T13:14:37;15.20;;;11.00;;
2888;SDS011;1453;42.708;23.282;2023-10-13T13:17:06;10.30;;;8.43;;
2888;SDS011;1453;42.708;23.282;2023-10-13T13:19:36;13.53;;;7.53;;
2888;SDS011;1453;42.708;23.282;2023-10-13T13:22:06;15.63;;;12.47;;
2888;SDS011;1453;42.708;23.282;2023-10-13T13:24:39;10.73;;;8.83;;
2888;SDS011;1453;42.708;23.282;2023-10-13T13:27:13;9.27;;;7.53;;
2888;SDS011;1453;42.708;23.282;2023-10-13T13:29:43;12.47;;;9.17;;
2888;SDS011;1453;42.708;23.282;2023-10-13T13:32:10;7.70;;;6.33;;
2888;SDS011;1453;42.708;23.282;2023-10-13T13:34:47;11.60;;;10.40;;
2888;SDS011;1453;42.708;23.282;2023-10-13T13:37:29;16.40;;;11.60;;
2888;SDS011;1453;42.708;23.282;2023-10-13T13:39:56;10.23;;;7.57;;
2888;SDS011;1453;42.708;23.282;2023-10-13T13:42:38;9.90;;;6.83;;
2888;SDS011;1453;42.708;23.282;2023-10-13T13:45:06;8.83;;;6.40;;
2888;SDS011;1453;42.708;23.282;2023-10-13T13:47:57;12.47;;;6.47;;
2888;SDS011;1453;42.708;23.282;2023-10-13T13:50:26;7.37;;;6.20;;
2888;SDS011;1453;42.708;23.282;2023-10-13T13:52:57;8.90;;;5.70;;
2888;SDS011;1453;42.708;23.282;2023-10-13T13:55:25;7.47;;;5.50;;
2888;SDS011;1453;42.708;23.282;2023-10-13T13:57:56;10.40;;;5.50;;
2888;SDS011;1453;42.708;23.282;2023-10-13T14:00:22;14.13;;;5.37;;
2888;SDS011;1453;42.708;23.282;2023-10-13T14:03:02;8.93;;;5.30;;
2888;SDS011;1453;42.708;23.282;2023-10-13T14:05:39;10.40;;;5.73;;
2888;SDS011;1453;42.708;23.282;2023-10-13T14:08:07;10.50;;;6.27;;
2888;SDS011;1453;42.708;23.282;2023-10-13T14:10:37;10.00;;;6.70;;
2888;SDS011;1453;42.708;23.282;2023-10-13T14:13:22;11.43;;;8.00;;
2888;SDS011;1453;42.708;23.282;2023-10-13T14:16:07;12.57;;;7.40;;
2888;SDS011;1453;42.708;23.282;2023-10-13T14:18:41;9.60;;;8.10;;
2888;SDS011;1453;42.708;23.282;2023-10-13T14:21:11;16.10;;;7.07;;
2888;SDS011;1453;42.708;23.282;2023-10-13T14:23:47;15.23;;;6.93;;
2888;SDS011;1453;42.708;23.282;2023-10-13T14:26:17;13.10;;;5.97;;
2888;SDS011;1453;42.708;23.282;2023-10-13T14:28:49;12.20;;;6.70;;
2888;SDS011;1453;42.708;23.282;2023-10-13T14:31:34;13.20;;;10.30;;
2888;SDS011;1453;42.708;23.282;2023-10-13T14:34:04;11.73;;;5.80;;
2888;SDS011;1453;42.708;23.282;2023-10-13T14:36:34;9.77;;;7.20;;
2888;SDS011;1453;42.708;23.282;2023-10-13T14:39:00;10.90;;;7.10;;
2888;SDS011;1453;42.708;23.282;2023-10-13T14:41:28;13.13;;;7.67;;
2888;SDS011;1453;42.708;23.282;2023-10-13T14:43:54;15.63;;;6.43;;
2888;SDS011;1453;42.708;23.282;2023-10-13T14:46:30;12.87;;;6.40;;
2888;SDS011;1453;42.708;23.282;2023-10-13T14:48:56;9.87;;;5.93;;
2888;SDS011;1453;42.708;23.282;2023-10-13T14:51:22;14.23;;;8.03;;
2888;SDS011;1453;42.708;23.282;2023-10-13T14:53:50;11.23;;;8.10;;
2888;SDS011;1453;42.708;23.282;2023-10-13T14:56:21;13.40;;;7.77;;
2888;SDS011;1453;42.708;23.282;2023-10-13T14:58:50;10.43;;;6.30;;
2888;SDS011;1453;42.708;23.282;2023-10-13T15:01:18;11.53;;;7.80;;
2888;SDS011;1453;42.708;23.282;2023-10-13T15:03:49;9.80;;;6.60;;
2888;SDS011;1453;42.708;23.282;2023-10-13T15:06:26;11.70;;;6.57;;
2888;SDS011;1453;42.708;23.282;2023-10-13T15:08:56;10.60;;;6.67;;
2888;SDS011;1453;42.708;23.282;2023-10-13T15:11:23;11.77;;;6.40;;
2888;SDS011;1453;42.708;23.282;2023-10-13T15:14:01;11.77;;;8.17;;
2888;SDS011;1453;42.708;23.282;2023-10-13T15:16:28;14.03;;;8.07;;
2888;SDS011;1453;42.708;23.282;2023-10-13T15:18:54;11.03;;;7.10;;
2888;SDS011;1453;42.708;23.282;2023-10-13T15:21:21;12.00;;;6.33;;
2888;SDS011;1453;42.708;23.282;2023-10-13T15:23:53;10.03;;;6.23;;
2888;SDS011;1453;42.708;23.282;2023-10-13T15:26:24;16.00;;;7.40;;
2888;SDS011;1453;42.708;23.282;2023-10-13T15:28:54;14.80;;;6.80;;
2888;SDS011;1453;42.708;23.282;2023-10-13T15:31:25;10.93;;;7.70;;
2888;SDS011;1453;42.708;23.282;2023-10-13T15:34:02;12.80;;;7.50;;
2888;SDS011;1453;42.708;23.282;2023-10-13T15:36:32;17.97;;;10.37;;
2888;SDS011;1453;42.708;23.282;2023-10-13T15:38:59;14.40;;;6.40;;
2888;SDS011;1453;42.708;23.282;2023-10-13T15:41:26;15.70;;;7.07;;
2888;SDS011;1453;42.708;23.282;2023-10-13T15:43:56;12.13;;;7.20;;
2888;SDS011;1453;42.708;23.282;2023-10-13T15:46:22;13.83;;;7.73;;
2888;SDS011;1453;42.708;23.282;2023-10-13T15:48:49;25.00;;;13.00;;
2888;SDS011;1453;42.708;23.282;2023-10-13T15:51:16;18.23;;;9.20;;
2888;SDS011;1453;42.708;23.282;2023-10-13T15:53:43;9.93;;;6.43;;
2888;SDS011;1453;42.708;23.282;2023-10-13T15:56:10;14.03;;;12.07;;
2888;SDS011;1453;42.708;23.282;2023-10-13T15:58:40;18.13;;;8.83;;
2888;SDS011;1453;42.708;23.282;2023-10-13T16:01:10;12.90;;;6.60;;
2888;SDS011;1453;42.708;23.282;2023-10-13T16:03:40;10.77;;;6.20;;
2888;SDS011;1453;42.708;23.282;2023-10-13T16:06:12;19.83;;;6.80;;
2888;SDS011;1453;42.708;23.282;2023-10-13T16:08:39;15.07;;;5.97;;
2888;SDS011;1453;42.708;23.282;2023-10-13T16:11:09;9.73;;;5.13;;